Annapolis, CA (95412)

8:38 AM PST on November 21, 2014 (GMT -0800)
Unit 18, The Sea Ranch, CA | Change Station
CLOSE
Current Station
Personal Weather Station
Location: The Sea Ranch, CA
Elevation: 80 ft
Nearby Weather Stations

Elev 80 ft 38.71 °N, 123.45 °W | Updated 2 minutes ago

Overcast
Overcast
47.3 °F
Feels Like 45 °F
N
5.0
Wind Variable Wind from NE
Gusts 11.0 mph

Today
High -- | Low -- °F
--% Chance of Precip.
Yesterday
High -- | Low -- °F
Precip. -- in
7:02 AM 4:55 PM
Waning Crescent, 1% visible
Pressure 30.10 in
Visibility 0.8 miles
Clouds Overcast 200 ft
Windchill 45 °F
Dew Point 47 °F
Humidity 97%
Rainfall 0.00 in
Snow Depth Not available.
UV 0.0 out of 12
Pollen 1.30 out of 12
Air Quality Not available.
Flu Activity Not available.
SPECI KSTS 211603Z COR 00000KT 3/4SM BR OVC002 08/08 A3010 RMK AO2

More Conditions Fewer Conditions

Pressure 30.10 in
Visibility 0.8 miles
Clouds Overcast 200 ft
Windchill 45 °F
Dew Point 47 °F
Humidity 97%
Rainfall 0.00 in
Snow Depth Not available.
UV 0.0 out of 12
Pollen 1.30 out of 12
Air Quality Not available.
Flu Activity Not available.
SPECI KSTS 211603Z COR 00000KT 3/4SM BR OVC002 08/08 A3010 RMK AO2

More Conditions Fewer Conditions

10-Day Weather Forecast

Almanac

Astronomy

Nov. 21, 2014 Rise Set
Actual Time
Civil Twilight
Nautical Twilight
Astronomical Twilight
Moon
Length of Visible Light
Length of Day
Tomorrow will be .
, % of the Moon is Illuminated

Today's Extremes

State Highs State Lows

Community

WunderPhotos

Upload Photos

1,772,685 photos uploaded!

WunderBlogs® & News

Nearby

Air Quality

  Air Quality AQ Index Pollutant
Not available.

Snow Depth

Station Depth Elevation

Earthquake Activity

City Distance Mag. Time & Date
Minimum magnitude displayed is 2.5.

Coastal Water Temperatures

Place Temperature

Nearby Weather Stations